sensor_id;sensor_type;location;lat;lon;timestamp;pressure;altitude;pressure_sealevel;temperature;humidity
3254;BME280;1639;42.804;23.342;2023-07-31T00:01:10;71541.34;;;-148.52;73.74
3254;BME280;1639;42.804;23.342;2023-07-31T00:03:35;71547.53;;;-148.52;73.98
3254;BME280;1639;42.804;23.342;2023-07-31T00:06:01;71545.47;;;-148.52;74.51
3254;BME280;1639;42.804;23.342;2023-07-31T00:08:26;71545.47;;;-148.52;74.32
3254;BME280;1639;42.804;23.342;2023-07-31T00:10:52;71545.47;;;-148.52;74.45
3254;BME280;1639;42.804;23.342;2023-07-31T00:13:18;71549.63;;;-148.52;74.84
3254;BME280;1639;42.804;23.342;2023-07-31T00:15:43;71551.69;;;-148.52;76.14
3254;BME280;1639;42.804;23.342;2023-07-31T00:18:08;71551.69;;;-148.52;76.72
3254;BME280;1639;42.804;23.342;2023-07-31T00:20:34;71559.94;;;-148.52;77.91
3254;BME280;1639;42.804;23.342;2023-07-31T00:22:59;71562.03;;;-148.52;78.74
3254;BME280;1639;42.804;23.342;2023-07-31T00:25:25;71578.56;;;-148.52;80.17
3254;BME280;1639;42.804;23.342;2023-07-31T00:27:50;71566.16;;;-148.52;80.94
3254;BME280;1639;42.804;23.342;2023-07-31T00:30:15;71570.28;;;-148.52;82.72
3254;BME280;1639;42.804;23.342;2023-07-31T00:32:41;71566.16;;;-148.52;82.95
3254;BME280;1639;42.804;23.342;2023-07-31T00:35:07;71564.09;;;-148.52;83.05
3254;BME280;1639;42.804;23.342;2023-07-31T00:37:32;71566.16;;;-148.52;83.50
3254;BME280;1639;42.804;23.342;2023-07-31T00:39:58;71576.50;;;-148.52;84.14
3254;BME280;1639;42.804;23.342;2023-07-31T00:42:24;71595.09;;;-148.52;84.77
3254;BME280;1639;42.804;23.342;2023-07-31T00:44:49;71603.38;;;-148.52;85.70
3254;BME280;1639;42.804;23.342;2023-07-31T00:47:15;71611.63;;;-148.52;86.36
3254;BME280;1639;42.804;23.342;2023-07-31T00:49:40;71615.78;;;-148.52;86.52
3254;BME280;1639;42.804;23.342;2023-07-31T00:52:06;71636.44;;;-148.52;87.71
3254;BME280;1639;42.804;23.342;2023-07-31T00:54:32;71653.00;;;-148.52;89.66
3254;BME280;1639;42.804;23.342;2023-07-31T00:56:58;71642.66;;;-148.52;100.00
3254;BME280;1639;42.804;23.342;2023-07-31T00:59:23;71640.59;;;-148.52;100.00
3254;BME280;1639;42.804;23.342;2023-07-31T01:01:49;71642.66;;;-148.52;100.00
3254;BME280;1639;42.804;23.342;2023-07-31T01:04:15;71628.19;;;-148.52;100.00
3254;BME280;1639;42.804;23.342;2023-07-31T01:06:58;71630.25;;;-148.52;100.00
3254;BME280;1639;42.804;23.342;2023-07-31T01:09:52;71621.97;;;-148.52;100.00
3254;BME280;1639;42.804;23.342;2023-07-31T01:12:21;71624.03;;;-148.52;100.00
3254;BME280;1639;42.804;23.342;2023-07-31T01:17:26;71615.78;;;-148.52;100.00
3254;BME280;1639;42.804;23.342;2023-07-31T01:19:53;71611.63;;;-148.52;100.00
3254;BME280;1639;42.804;23.342;2023-07-31T01:25:33;71605.44;;;-148.52;100.00
3254;BME280;1639;42.804;23.342;2023-07-31T01:28:04;71621.97;;;-148.52;100.00
3254;BME280;1639;42.804;23.342;2023-07-31T01:30:35;71632.31;;;-148.52;100.00
3254;BME280;1639;42.804;23.342;2023-07-31T01:33:03;71644.72;;;-148.52;100.00
3254;BME280;1639;42.804;23.342;2023-07-31T01:35:36;71669.53;;;-148.52;100.00
3254;BME280;1639;42.804;23.342;2023-07-31T01:38:02;71686.06;;;-148.52;100.00
3254;BME280;1639;42.804;23.342;2023-07-31T01:40:28;71684.00;;;-148.52;100.00
3254;BME280;1639;42.804;23.342;2023-07-31T01:42:53;71677.78;;;-148.52;100.00
3254;BME280;1639;42.804;23.342;2023-07-31T01:45:19;71694.34;;;-148.52;100.00
3254;BME280;1639;42.804;23.342;2023-07-31T01:47:45;71686.06;;;-148.52;100.00
3254;BME280;1639;42.804;23.342;2023-07-31T01:50:10;71717.09;;;-148.52;100.00
3254;BME280;1639;42.804;23.342;2023-07-31T01:52:36;71723.28;;;-148.52;100.00
3254;BME280;1639;42.804;23.342;2023-07-31T01:55:01;71719.16;;;-148.52;100.00
3254;BME280;1639;42.804;23.342;2023-07-31T01:57:27;71717.09;;;-148.52;100.00
3254;BME280;1639;42.804;23.342;2023-07-31T01:59:52;71702.59;;;-148.52;100.00
3254;BME280;1639;42.804;23.342;2023-07-31T02:02:19;71690.19;;;-148.52;100.00
3254;BME280;1639;42.804;23.342;2023-07-31T02:04:44;71677.78;;;-148.52;100.00
3254;BME280;1639;42.804;23.342;2023-07-31T02:07:10;71673.66;;;-148.52;100.00
3254;BME280;1639;42.804;23.342;2023-07-31T02:09:35;71679.88;;;-148.52;100.00
3254;BME280;1639;42.804;23.342;2023-07-31T02:12:00;71675.72;;;-148.52;100.00
3254;BME280;1639;42.804;23.342;2023-07-31T02:14:26;71677.78;;;-148.52;100.00
3254;BME280;1639;42.804;23.342;2023-07-31T02:16:51;71659.19;;;-148.52;100.00
3254;BME280;1639;42.804;23.342;2023-07-31T02:19:16;71657.13;;;-148.52;100.00
3254;BME280;1639;42.804;23.342;2023-07-31T02:21:42;71661.25;;;-148.52;100.00
3254;BME280;1639;42.804;23.342;2023-07-31T02:24:07;71673.66;;;-148.52;100.00
3254;BME280;1639;42.804;23.342;2023-07-31T02:26:33;71663.31;;;-148.52;100.00
3254;BME280;1639;42.804;23.342;2023-07-31T02:28:58;71657.13;;;-148.52;100.00
3254;BME280;1639;42.804;23.342;2023-07-31T02:31:23;71646.78;;;-148.52;100.00
3254;BME280;1639;42.804;23.342;2023-07-31T02:33:49;71644.72;;;-148.52;100.00
3254;BME280;1639;42.804;23.342;2023-07-31T02:36:14;71648.84;;;-148.52;100.00
3254;BME280;1639;42.804;23.342;2023-07-31T02:38:40;71661.25;;;-148.52;100.00
3254;BME280;1639;42.804;23.342;2023-07-31T02:41:05;71667.47;;;-148.52;100.00
3254;BME280;1639;42.804;23.342;2023-07-31T02:43:31;71673.66;;;-148.52;100.00
3254;BME280;1639;42.804;23.342;2023-07-31T02:45:56;71669.53;;;-148.52;100.00
3254;BME280;1639;42.804;23.342;2023-07-31T02:48:21;71679.88;;;-148.52;100.00
3254;BME280;1639;42.804;23.342;2023-07-31T02:50:47;71681.94;;;-148.52;100.00
3254;BME280;1639;42.804;23.342;2023-07-31T02:53:13;71675.72;;;-148.52;100.00
3254;BME280;1639;42.804;23.342;2023-07-31T02:55:39;71669.53;;;-148.52;100.00
3254;BME280;1639;42.804;23.342;2023-07-31T02:58:04;71684.00;;;-148.52;100.00
3254;BME280;1639;42.804;23.342;2023-07-31T03:00:30;71704.69;;;-148.52;100.00
3254;BME280;1639;42.804;23.342;2023-07-31T03:02:55;71686.06;;;-148.52;100.00
3254;BME280;1639;42.804;23.342;2023-07-31T03:05:20;71669.53;;;-148.52;100.00
3254;BME280;1639;42.804;23.342;2023-07-31T03:07:46;71665.38;;;-148.52;100.00
3254;BME280;1639;42.804;23.342;2023-07-31T03:10:11;71653.00;;;-148.52;100.00
3254;BME280;1639;42.804;23.342;2023-07-31T03:12:37;71642.66;;;-148.52;100.00
3254;BME280;1639;42.804;23.342;2023-07-31T03:15:02;71640.59;;;-148.52;100.00
3254;BME280;1639;42.804;23.342;2023-07-31T03:17:28;71634.38;;;-148.52;100.00
3254;BME280;1639;42.804;23.342;2023-07-31T03:19:53;71634.38;;;-148.52;100.00
3254;BME280;1639;42.804;23.342;2023-07-31T03:22:19;71619.91;;;-148.52;100.00
3254;BME280;1639;42.804;23.342;2023-07-31T03:24:44;71619.91;;;-148.52;100.00
3254;BME280;1639;42.804;23.342;2023-07-31T03:27:09;71630.25;;;-148.52;100.00
3254;BME280;1639;42.804;23.342;2023-07-31T03:29:35;71626.09;;;-148.52;100.00
3254;BME280;1639;42.804;23.342;2023-07-31T03:32:00;71615.78;;;-148.52;100.00
3254;BME280;1639;42.804;23.342;2023-07-31T03:34:26;71615.78;;;-148.52;97.40
3254;BME280;1639;42.804;23.342;2023-07-31T03:36:51;71607.50;;;-148.52;97.21
3254;BME280;1639;42.804;23.342;2023-07-31T03:39:16;71630.25;;;-148.52;97.55
3254;BME280;1639;42.804;23.342;2023-07-31T03:41:42;71657.13;;;-148.52;100.00
3254;BME280;1639;42.804;23.342;2023-07-31T03:44:07;71657.13;;;-148.52;100.00
3254;BME280;1639;42.804;23.342;2023-07-31T03:46:33;71644.72;;;-148.52;100.00
3254;BME280;1639;42.804;23.342;2023-07-31T03:48:59;71640.59;;;-148.52;100.00
3254;BME280;1639;42.804;23.342;2023-07-31T03:51:24;71636.44;;;-148.52;99.84
3254;BME280;1639;42.804;23.342;2023-07-31T03:53:50;71630.25;;;-148.52;99.48
3254;BME280;1639;42.804;23.342;2023-07-31T03:56:15;71621.97;;;-148.52;98.95
3254;BME280;1639;42.804;23.342;2023-07-31T03:58:40;71669.53;;;-148.52;100.00
3254;BME280;1639;42.804;23.342;2023-07-31T04:01:06;71661.25;;;-148.52;100.00
3254;BME280;1639;42.804;23.342;2023-07-31T04:03:31;71657.13;;;-148.52;100.00
3254;BME280;1639;42.804;23.342;2023-07-31T04:05:56;71661.25;;;-148.52;100.00
3254;BME280;1639;42.804;23.342;2023-07-31T04:08:22;71681.94;;;-148.52;100.00
3254;BME280;1639;42.804;23.342;2023-07-31T04:10:48;71667.47;;;-148.52;100.00
3254;BME280;1639;42.804;23.342;2023-07-31T04:13:14;71661.25;;;-148.52;100.00
3254;BME280;1639;42.804;23.342;2023-07-31T04:15:39;71648.84;;;-148.52;100.00
3254;BME280;1639;42.804;23.342;2023-07-31T04:18:05;71636.44;;;-148.52;100.00
3254;BME280;1639;42.804;23.342;2023-07-31T04:20:30;71626.09;;;-148.52;100.00
3254;BME280;1639;42.804;23.342;2023-07-31T04:22:56;71634.38;;;-148.52;100.00
3254;BME280;1639;42.804;23.342;2023-07-31T04:25:21;71644.72;;;-148.52;100.00
3254;BME280;1639;42.804;23.342;2023-07-31T04:27:47;71642.66;;;-148.52;100.00
3254;BME280;1639;42.804;23.342;2023-07-31T04:30:12;71628.19;;;-148.52;100.00
3254;BME280;1639;42.804;23.342;2023-07-31T04:32:38;71628.19;;;-148.52;100.00
3254;BME280;1639;42.804;23.342;2023-07-31T04:35:03;71607.50;;;-148.52;100.00
3254;BME280;1639;42.804;23.342;2023-07-31T04:37:29;71578.56;;;-148.52;100.00
3254;BME280;1639;42.804;23.342;2023-07-31T04:39:54;71578.56;;;-148.52;100.00
3254;BME280;1639;42.804;23.342;2023-07-31T04:42:19;71566.16;;;-148.52;100.00
3254;BME280;1639;42.804;23.342;2023-07-31T04:44:45;71562.03;;;-148.52;100.00
3254;BME280;1639;42.804;23.342;2023-07-31T04:47:10;71551.69;;;-148.52;100.00
3254;BME280;1639;42.804;23.342;2023-07-31T04:49:36;71539.28;;;-148.52;100.00
3254;BME280;1639;42.804;23.342;2023-07-31T04:52:01;71524.81;;;-148.52;100.00
3254;BME280;1639;42.804;23.342;2023-07-31T04:54:26;71524.81;;;-148.52;100.00
3254;BME280;1639;42.804;23.342;2023-07-31T04:56:52;71520.66;;;-148.52;100.00
3254;BME280;1639;42.804;23.342;2023-07-31T04:59:18;71520.66;;;-148.52;100.00
3254;BME280;1639;42.804;23.342;2023-07-31T05:01:43;71518.59;;;-148.52;100.00
3254;BME280;1639;42.804;23.342;2023-07-31T05:04:12;71522.72;;;-148.52;100.00
3254;BME280;1639;42.804;23.342;2023-07-31T05:06:37;71516.53;;;-148.52;96.82
3254;BME280;1639;42.804;23.342;2023-07-31T05:09:03;71524.81;;;-148.52;98.18
3254;BME280;1639;42.804;23.342;2023-07-31T05:11:28;71518.59;;;-148.52;96.78
3254;BME280;1639;42.804;23.342;2023-07-31T05:13:53;71508.25;;;-148.52;96.68
3254;BME280;1639;42.804;23.342;2023-07-31T05:16:19;71491.72;;;-148.52;94.11
3254;BME280;1639;42.804;23.342;2023-07-31T05:18:44;71489.66;;;-148.52;94.14
3254;BME280;1639;42.804;23.342;2023-07-31T05:21:10;71487.59;;;-148.52;93.77
3254;BME280;1639;42.804;23.342;2023-07-31T05:23:35;71460.72;;;-148.52;93.22
3254;BME280;1639;42.804;23.342;2023-07-31T05:26:07;71458.66;;;-148.52;85.47
3254;BME280;1639;42.804;23.342;2023-07-31T05:28:35;71442.09;;;-148.52;86.86
3254;BME280;1639;42.804;23.342;2023-07-31T05:31:02;71433.84;;;-148.52;84.11
3254;BME280;1639;42.804;23.342;2023-07-31T05:33:27;71431.78;;;-148.52;82.15
3254;BME280;1639;42.804;23.342;2023-07-31T05:35:53;71425.56;;;-148.52;81.63
3254;BME280;1639;42.804;23.342;2023-07-31T05:38:18;71417.28;;;-148.52;79.48
3254;BME280;1639;42.804;23.342;2023-07-31T05:40:44;71398.69;;;-148.52;80.36
3254;BME280;1639;42.804;23.342;2023-07-31T05:43:09;71382.16;;;-148.52;76.17
3254;BME280;1639;42.804;23.342;2023-07-31T05:45:35;71404.91;;;-148.52;75.58
3254;BME280;1639;42.804;23.342;2023-07-31T05:48:01;71423.50;;;-148.52;75.38
3254;BME280;1639;42.804;23.342;2023-07-31T05:50:26;71425.56;;;-148.52;76.39
3254;BME280;1639;42.804;23.342;2023-07-31T05:52:51;71425.56;;;-148.52;74.88
3254;BME280;1639;42.804;23.342;2023-07-31T05:55:17;71429.69;;;-148.52;75.50
3254;BME280;1639;42.804;23.342;2023-07-31T05:57:42;71415.22;;;-148.52;77.63
3254;BME280;1639;42.804;23.342;2023-07-31T06:00:08;71400.75;;;-148.52;76.50
3254;BME280;1639;42.804;23.342;2023-07-31T06:02:34;71390.41;;;-148.52;73.55
3254;BME280;1639;42.804;23.342;2023-07-31T06:05:02;71367.69;;;-148.52;73.88
3254;BME280;1639;42.804;23.342;2023-07-31T06:07:29;71355.28;;;-148.52;73.06
3254;BME280;1639;42.804;23.342;2023-07-31T06:09:54;71355.28;;;-148.52;72.36
3254;BME280;1639;42.804;23.342;2023-07-31T06:12:20;71336.66;;;-148.52;71.79
3254;BME280;1639;42.804;23.342;2023-07-31T06:14:46;71340.81;;;-148.52;70.49
3254;BME280;1639;42.804;23.342;2023-07-31T06:17:11;71349.06;;;-148.52;70.79
3254;BME280;1639;42.804;23.342;2023-07-31T06:19:36;71340.81;;;-148.52;71.16
3254;BME280;1639;42.804;23.342;2023-07-31T06:22:02;71347.00;;;-148.52;70.13
3254;BME280;1639;42.804;23.342;2023-07-31T06:24:28;71338.75;;;-148.52;69.06
3254;BME280;1639;42.804;23.342;2023-07-31T06:26:53;71334.59;;;-148.52;68.53
3254;BME280;1639;42.804;23.342;2023-07-31T06:29:19;71326.34;;;-148.52;69.27
3254;BME280;1639;42.804;23.342;2023-07-31T06:31:44;71324.25;;;-148.52;68.27
3254;BME280;1639;42.804;23.342;2023-07-31T06:34:10;71326.34;;;-148.52;67.64
3254;BME280;1639;42.804;23.342;2023-07-31T06:36:35;71326.34;;;-148.52;67.90
3254;BME280;1639;42.804;23.342;2023-07-31T06:39:00;71320.13;;;-148.52;67.92
3254;BME280;1639;42.804;23.342;2023-07-31T06:41:26;71301.53;;;-148.52;67.05
3254;BME280;1639;42.804;23.342;2023-07-31T06:43:51;71313.94;;;-148.52;65.95
3254;BME280;1639;42.804;23.342;2023-07-31T06:46:16;71295.31;;;-148.52;66.76
3254;BME280;1639;42.804;23.342;2023-07-31T06:48:42;71278.78;;;-148.52;66.35
3254;BME280;1639;42.804;23.342;2023-07-31T06:51:07;71243.63;;;-148.52;62.32
3254;BME280;1639;42.804;23.342;2023-07-31T06:53:32;71229.16;;;-148.52;62.39
3254;BME280;1639;42.804;23.342;2023-07-31T06:55:58;71212.63;;;-148.52;61.94
3254;BME280;1639;42.804;23.342;2023-07-31T06:58:23;71177.50;;;-148.52;62.15
3254;BME280;1639;42.804;23.342;2023-07-31T07:00:49;71156.81;;;-148.52;59.16
3254;BME280;1639;42.804;23.342;2023-07-31T07:03:17;71148.53;;;-148.52;58.02
3254;BME280;1639;42.804;23.342;2023-07-31T07:05:43;71140.28;;;-148.52;57.99
3254;BME280;1639;42.804;23.342;2023-07-31T07:08:08;71144.41;;;-148.52;57.67
3254;BME280;1639;42.804;23.342;2023-07-31T07:10:33;71111.34;;;-148.52;56.44
3254;BME280;1639;42.804;23.342;2023-07-31T07:12:59;71117.53;;;-148.52;56.71
3254;BME280;1639;42.804;23.342;2023-07-31T07:15:24;71103.06;;;-148.52;57.54
3254;BME280;1639;42.804;23.342;2023-07-31T07:17:50;71094.78;;;-148.52;57.33
3254;BME280;1639;42.804;23.342;2023-07-31T07:20:15;71067.91;;;-148.52;56.71
3254;BME280;1639;42.804;23.342;2023-07-31T07:22:40;71026.56;;;-148.52;56.91
3254;BME280;1639;42.804;23.342;2023-07-31T07:25:08;70997.63;;;-148.52;54.37
3254;BME280;1639;42.804;23.342;2023-07-31T07:27:33;71020.38;;;-148.52;54.75
3254;BME280;1639;42.804;23.342;2023-07-31T07:29:59;70981.09;;;-148.52;53.67
3254;BME280;1639;42.804;23.342;2023-07-31T07:32:24;70960.44;;;-148.52;53.01
3254;BME280;1639;42.804;23.342;2023-07-31T07:34:50;70999.72;;;-148.52;52.61
3254;BME280;1639;42.804;23.342;2023-07-31T07:37:16;70983.16;;;-148.52;54.13
3254;BME280;1639;42.804;23.342;2023-07-31T07:39:41;70958.38;;;-148.52;52.87
3254;BME280;1639;42.804;23.342;2023-07-31T07:42:07;70941.81;;;-148.52;52.16
3254;BME280;1639;42.804;23.342;2023-07-31T07:44:32;70906.69;;;-148.52;51.54
3254;BME280;1639;42.804;23.342;2023-07-31T07:46:58;70904.63;;;-148.52;50.81
3254;BME280;1639;42.804;23.342;2023-07-31T07:49:23;70906.69;;;-148.52;50.06
3254;BME280;1639;42.804;23.342;2023-07-31T07:51:49;70912.88;;;-148.52;50.05
3254;BME280;1639;42.804;23.342;2023-07-31T07:54:14;70879.81;;;-148.52;50.23
3254;BME280;1639;42.804;23.342;2023-07-31T07:56:42;70848.81;;;-148.52;49.76
3254;BME280;1639;42.804;23.342;2023-07-31T07:59:07;70894.28;;;-148.52;48.04
3254;BME280;1639;42.804;23.342;2023-07-31T08:01:33;70958.38;;;-148.52;49.41
3254;BME280;1639;42.804;23.342;2023-07-31T08:03:58;70987.31;;;-148.52;49.96
3254;BME280;1639;42.804;23.342;2023-07-31T08:06:23;71036.91;;;-148.52;50.86
3254;BME280;1639;42.804;23.342;2023-07-31T08:08:49;71041.03;;;-148.52;51.34
3254;BME280;1639;42.804;23.342;2023-07-31T08:11:14;71012.09;;;-148.52;51.12
3254;BME280;1639;42.804;23.342;2023-07-31T08:13:40;70948.03;;;-148.52;50.82
3254;BME280;1639;42.804;23.342;2023-07-31T08:16:05;70890.16;;;-148.52;49.08
3254;BME280;1639;42.804;23.342;2023-07-31T08:18:31;70948.03;;;-148.52;48.30
3254;BME280;1639;42.804;23.342;2023-07-31T08:20:57;70972.84;;;-148.52;48.95
3254;BME280;1639;42.804;23.342;2023-07-31T08:23:23;70989.38;;;-148.52;49.93
3254;BME280;1639;42.804;23.342;2023-07-31T08:25:48;71012.09;;;-148.52;49.19
3254;BME280;1639;42.804;23.342;2023-07-31T08:28:15;71032.78;;;-148.52;50.07
3254;BME280;1639;42.804;23.342;2023-07-31T08:30:41;71043.13;;;-148.52;50.52
3254;BME280;1639;42.804;23.342;2023-07-31T08:33:07;71045.19;;;-148.52;49.74
3254;BME280;1639;42.804;23.342;2023-07-31T08:35:32;71045.19;;;-148.52;49.75
3254;BME280;1639;42.804;23.342;2023-07-31T08:37:58;71007.97;;;-148.52;51.25
3254;BME280;1639;42.804;23.342;2023-07-31T08:40:23;70937.69;;;-148.52;49.00
3254;BME280;1639;42.804;23.342;2023-07-31T08:42:54;70888.06;;;-148.52;47.05
3254;BME280;1639;42.804;23.342;2023-07-31T08:45:22;70848.81;;;-148.52;47.60
3254;BME280;1639;42.804;23.342;2023-07-31T08:47:49;70811.59;;;-148.52;46.15
3254;BME280;1639;42.804;23.342;2023-07-31T08:50:16;70759.91;;;-148.52;45.05
3254;BME280;1639;42.804;23.342;2023-07-31T08:52:42;70714.44;;;-148.52;44.57
3254;BME280;1639;42.804;23.342;2023-07-31T08:55:07;70720.66;;;-148.52;44.68
3254;BME280;1639;42.804;23.342;2023-07-31T08:57:36;70706.19;;;-148.52;43.70
3254;BME280;1639;42.804;23.342;2023-07-31T09:00:06;70666.91;;;-148.52;44.06
3254;BME280;1639;42.804;23.342;2023-07-31T09:05:06;70631.75;;;-148.52;42.38
3254;BME280;1639;42.804;23.342;2023-07-31T09:07:34;70611.09;;;-148.52;42.87
3254;BME280;1639;42.804;23.342;2023-07-31T09:10:00;70571.81;;;-148.52;41.45
3254;BME280;1639;42.804;23.342;2023-07-31T09:12:25;70656.56;;;-148.52;42.10
3254;BME280;1639;42.804;23.342;2023-07-31T09:14:51;70677.25;;;-148.52;41.94
3254;BME280;1639;42.804;23.342;2023-07-31T09:17:28;70668.97;;;-148.52;42.97
3254;BME280;1639;42.804;23.342;2023-07-31T09:19:54;70689.63;;;-148.52;41.16
3254;BME280;1639;42.804;23.342;2023-07-31T09:22:31;70702.03;;;-148.52;41.92
3254;BME280;1639;42.804;23.342;2023-07-31T09:25:08;70675.16;;;-148.52;42.78
3254;BME280;1639;42.804;23.342;2023-07-31T09:28:08;70604.91;;;-148.52;41.03
3254;BME280;1639;42.804;23.342;2023-07-31T09:30:49;70594.56;;;-148.52;39.57
3254;BME280;1639;42.804;23.342;2023-07-31T09:33:15;70648.28;;;-148.52;40.13
3254;BME280;1639;42.804;23.342;2023-07-31T09:35:40;70706.19;;;-148.52;41.77
3254;BME280;1639;42.804;23.342;2023-07-31T09:38:11;70747.50;;;-148.52;41.89
3254;BME280;1639;42.804;23.342;2023-07-31T09:40:39;70774.38;;;-148.52;41.73
3254;BME280;1639;42.804;23.342;2023-07-31T09:43:06;70793.00;;;-148.52;41.16
3254;BME280;1639;42.804;23.342;2023-07-31T09:45:37;70759.91;;;-148.52;41.91
3254;BME280;1639;42.804;23.342;2023-07-31T09:48:02;70691.72;;;-148.52;41.07
3254;BME280;1639;42.804;23.342;2023-07-31T09:50:28;70675.16;;;-148.52;40.47
3254;BME280;1639;42.804;23.342;2023-07-31T09:52:54;70662.78;;;-148.52;40.30
3254;BME280;1639;42.804;23.342;2023-07-31T09:55:20;70702.03;;;-148.52;39.71
3254;BME280;1639;42.804;23.342;2023-07-31T09:57:48;70712.38;;;-148.52;40.63
3254;BME280;1639;42.804;23.342;2023-07-31T10:00:18;70737.19;;;-148.52;41.26
3254;BME280;1639;42.804;23.342;2023-07-31T10:02:47;70757.84;;;-148.52;41.03
3254;BME280;1639;42.804;23.342;2023-07-31T10:05:15;70768.19;;;-148.52;41.92
3254;BME280;1639;42.804;23.342;2023-07-31T10:07:45;70757.84;;;-148.52;41.74
3254;BME280;1639;42.804;23.342;2023-07-31T10:10:15;70755.78;;;-148.52;41.28
3254;BME280;1639;42.804;23.342;2023-07-31T10:12:41;70728.91;;;-148.52;41.71
3254;BME280;1639;42.804;23.342;2023-07-31T10:15:09;70726.84;;;-148.52;41.88
3254;BME280;1639;42.804;23.342;2023-07-31T10:17:35;70702.03;;;-148.52;40.87
3254;BME280;1639;42.804;23.342;2023-07-31T10:20:01;70724.78;;;-148.52;40.22
3254;BME280;1639;42.804;23.342;2023-07-31T10:22:29;70751.66;;;-148.52;41.23
3254;BME280;1639;42.804;23.342;2023-07-31T10:24:57;70782.66;;;-148.52;41.45
3254;BME280;1639;42.804;23.342;2023-07-31T10:27:23;70797.13;;;-148.52;41.75
3254;BME280;1639;42.804;23.342;2023-07-31T10:29:48;70834.34;;;-148.52;42.39
3254;BME280;1639;42.804;23.342;2023-07-31T10:32:15;70817.78;;;-148.52;41.71
3254;BME280;1639;42.804;23.342;2023-07-31T10:34:42;70815.72;;;-148.52;41.79
3254;BME280;1639;42.804;23.342;2023-07-31T10:37:27;70817.78;;;-148.52;42.59
3254;BME280;1639;42.804;23.342;2023-07-31T10:40:46;70811.59;;;-148.52;41.80
3254;BME280;1639;42.804;23.342;2023-07-31T10:43:05;70801.25;;;-148.52;41.74
3254;BME280;1639;42.804;23.342;2023-07-31T10:48:07;70879.81;;;-148.52;44.49
3254;BME280;1639;42.804;23.342;2023-07-31T10:50:45;70925.28;;;-148.52;45.57
3254;BME280;1639;42.804;23.342;2023-07-31T10:53:25;70879.81;;;-148.52;45.56
3254;BME280;1639;42.804;23.342;2023-07-31T10:55:51;70863.28;;;-148.52;44.23
3254;BME280;1639;42.804;23.342;2023-07-31T10:58:19;70842.59;;;-148.52;43.01
3254;BME280;1639;42.804;23.342;2023-07-31T11:00:45;70803.31;;;-148.52;43.08
3254;BME280;1639;42.804;23.342;2023-07-31T11:03:18;70797.13;;;-148.52;42.21
3254;BME280;1639;42.804;23.342;2023-07-31T11:08:26;70801.25;;;-148.52;42.50
3254;BME280;1639;42.804;23.342;2023-07-31T11:13:30;70803.31;;;-148.52;41.30
3254;BME280;1639;42.804;23.342;2023-07-31T11:15:56;70786.78;;;-148.52;41.03
3254;BME280;1639;42.804;23.342;2023-07-31T11:18:21;70772.31;;;-148.52;41.39
3254;BME280;1639;42.804;23.342;2023-07-31T11:20:47;70751.66;;;-148.52;41.87
3254;BME280;1639;42.804;23.342;2023-07-31T11:23:12;70747.50;;;-148.52;40.10
3254;BME280;1639;42.804;23.342;2023-07-31T11:25:39;70768.19;;;-148.52;40.53
3254;BME280;1639;42.804;23.342;2023-07-31T11:28:09;70768.19;;;-148.52;39.28
3254;BME280;1639;42.804;23.342;2023-07-31T11:30:35;70772.31;;;-148.52;40.81
3254;BME280;1639;42.804;23.342;2023-07-31T11:33:02;70735.13;;;-148.52;42.14
3254;BME280;1639;42.804;23.342;2023-07-31T11:35:29;70673.09;;;-148.52;40.71
3254;BME280;1639;42.804;23.342;2023-07-31T11:37:55;70627.63;;;-148.52;39.42
3254;BME280;1639;42.804;23.342;2023-07-31T11:40:20;70582.16;;;-148.52;40.20
3254;BME280;1639;42.804;23.342;2023-07-31T11:42:46;70590.44;;;-148.52;37.93
3254;BME280;1639;42.804;23.342;2023-07-31T11:45:11;70580.09;;;-148.52;37.88
3254;BME280;1639;42.804;23.342;2023-07-31T11:47:37;70642.09;;;-148.52;38.21
3254;BME280;1639;42.804;23.342;2023-07-31T11:50:04;70609.03;;;-148.52;37.96
3254;BME280;1639;42.804;23.342;2023-07-31T11:52:32;70571.81;;;-148.52;38.65
3254;BME280;1639;42.804;23.342;2023-07-31T11:54:59;70540.81;;;-148.52;37.33
3254;BME280;1639;42.804;23.342;2023-07-31T11:57:25;70516.00;;;-148.52;37.84
3254;BME280;1639;42.804;23.342;2023-07-31T11:59:51;70582.16;;;-148.52;38.14
3254;BME280;1639;42.804;23.342;2023-07-31T12:02:17;70660.69;;;-148.52;39.20
3254;BME280;1639;42.804;23.342;2023-07-31T12:04:43;70702.03;;;-148.52;40.47
3254;BME280;1639;42.804;23.342;2023-07-31T12:07:08;70743.38;;;-148.52;40.55
3254;BME280;1639;42.804;23.342;2023-07-31T12:09:34;70743.38;;;-148.52;40.79
3254;BME280;1639;42.804;23.342;2023-07-31T12:11:59;70759.91;;;-148.52;41.83
3254;BME280;1639;42.804;23.342;2023-07-31T12:14:26;70772.31;;;-148.52;40.84
3254;BME280;1639;42.804;23.342;2023-07-31T12:16:59;70768.19;;;-148.52;40.91
3254;BME280;1639;42.804;23.342;2023-07-31T12:19:26;70741.31;;;-148.52;41.67
3254;BME280;1639;42.804;23.342;2023-07-31T12:21:58;70658.63;;;-148.52;41.45
3254;BME280;1639;42.804;23.342;2023-07-31T12:24:26;70611.09;;;-148.52;39.55
3254;BME280;1639;42.804;23.342;2023-07-31T12:26:51;70650.38;;;-148.52;38.68
3254;BME280;1639;42.804;23.342;2023-07-31T12:29:17;70689.63;;;-148.52;39.28
3254;BME280;1639;42.804;23.342;2023-07-31T12:31:43;70768.19;;;-148.52;40.60
3254;BME280;1639;42.804;23.342;2023-07-31T12:34:20;70778.53;;;-148.52;40.48
3254;BME280;1639;42.804;23.342;2023-07-31T12:36:48;70793.00;;;-148.52;41.50
3254;BME280;1639;42.804;23.342;2023-07-31T12:39:14;70834.34;;;-148.52;41.55
3254;BME280;1639;42.804;23.342;2023-07-31T12:41:40;70815.72;;;-148.52;41.45
3254;BME280;1639;42.804;23.342;2023-07-31T12:44:05;70799.19;;;-148.52;41.93
3254;BME280;1639;42.804;23.342;2023-07-31T12:46:31;70795.06;;;-148.52;41.39
3254;BME280;1639;42.804;23.342;2023-07-31T12:48:56;70749.59;;;-148.52;41.49
3254;BME280;1639;42.804;23.342;2023-07-31T12:51:21;70695.84;;;-148.52;41.29
3254;BME280;1639;42.804;23.342;2023-07-31T12:53:47;70693.78;;;-148.52;40.13
3254;BME280;1639;42.804;23.342;2023-07-31T12:56:12;70714.44;;;-148.52;39.99
3254;BME280;1639;42.804;23.342;2023-07-31T12:58:38;70743.38;;;-148.52;40.03
3254;BME280;1639;42.804;23.342;2023-07-31T13:01:03;70702.03;;;-148.52;39.94